Terminal Aerodrome Forecast
Issued by NWS

Home | Current Version | Previous Version | Graphics & Text | Print | Product List | Glossary On
Versions: 1 2 3 4 5 6 7 8 9 10 11 12 13 14 15 16 17
000
FTUS43 KIWX 142330 AAB
TAFSBN
TAF AMD
KSBN 142330Z 1500/1524 18007KT 2SM BR OVC003
     FM150300 21009KT 1 1/2SM -DZ BR OVC003
     FM150600 22010KT 3/4SM -DZ BR OVC003
     FM151500 22009KT 1/2SM -RA FG OVC003 WS020/25035KT=

USA.gov is the U.S. government's official web portal to all federal, state and local government web resources and services.